sensor_id;sensor_type;location;lat;lon;timestamp;temperature;humidity
816;DHT22;25928;51.062;13.752;2023-02-28T00:00:25;3.60;1.00
816;DHT22;25928;51.062;13.752;2023-02-28T00:02:51;3.70;1.00
816;DHT22;25928;51.062;13.752;2023-02-28T00:05:19;3.60;1.00
816;DHT22;25928;51.062;13.752;2023-02-28T00:07:45;3.60;1.00
816;DHT22;25928;51.062;13.752;2023-02-28T00:10:13;3.60;1.00
816;DHT22;25928;51.062;13.752;2023-02-28T00:12:39;3.60;1.00
816;DHT22;25928;51.062;13.752;2023-02-28T00:15:09;3.70;1.00
816;DHT22;25928;51.062;13.752;2023-02-28T00:17:35;3.60;1.00
816;DHT22;25928;51.062;13.752;2023-02-28T00:20:01;3.60;1.00
816;DHT22;25928;51.062;13.752;2023-02-28T00:22:27;3.50;1.00
816;DHT22;25928;51.062;13.752;2023-02-28T00:24:52;3.50;1.00
816;DHT22;25928;51.062;13.752;2023-02-28T00:27:18;3.60;1.00
816;DHT22;25928;51.062;13.752;2023-02-28T00:29:45;3.50;1.00
816;DHT22;25928;51.062;13.752;2023-02-28T00:32:11;3.50;1.00
816;DHT22;25928;51.062;13.752;2023-02-28T00:34:37;3.50;1.00
816;DHT22;25928;51.062;13.752;2023-02-28T00:37:04;3.50;1.00
816;DHT22;25928;51.062;13.752;2023-02-28T00:39:31;3.50;1.00
816;DHT22;25928;51.062;13.752;2023-02-28T00:41:56;3.70;1.00
816;DHT22;25928;51.062;13.752;2023-02-28T00:44:22;3.70;1.00
816;DHT22;25928;51.062;13.752;2023-02-28T00:46:47;3.60;1.00
816;DHT22;25928;51.062;13.752;2023-02-28T00:49:13;3.40;1.00
816;DHT22;25928;51.062;13.752;2023-02-28T00:51:39;3.40;1.00
816;DHT22;25928;51.062;13.752;2023-02-28T00:54:04;3.50;1.00
816;DHT22;25928;51.062;13.752;2023-02-28T00:56:30;3.40;1.00
816;DHT22;25928;51.062;13.752;2023-02-28T00:58:55;3.20;1.00
816;DHT22;25928;51.062;13.752;2023-02-28T01:01:21;3.10;1.00
816;DHT22;25928;51.062;13.752;2023-02-28T01:03:47;3.10;1.00
816;DHT22;25928;51.062;13.752;2023-02-28T01:06:12;3.10;1.00
816;DHT22;25928;51.062;13.752;2023-02-28T01:08:38;3.10;1.00
816;DHT22;25928;51.062;13.752;2023-02-28T01:11:09;3.10;1.00
816;DHT22;25928;51.062;13.752;2023-02-28T01:13:35;3.10;1.00
816;DHT22;25928;51.062;13.752;2023-02-28T01:16:00;3.10;1.00
816;DHT22;25928;51.062;13.752;2023-02-28T01:18:26;3.10;1.00
816;DHT22;25928;51.062;13.752;2023-02-28T01:20:52;4.70;1.00
816;DHT22;25928;51.062;13.752;2023-02-28T01:23:19;3.20;1.00
816;DHT22;25928;51.062;13.752;2023-02-28T01:25:45;3.20;1.00
816;DHT22;25928;51.062;13.752;2023-02-28T01:28:11;3.20;1.00
816;DHT22;25928;51.062;13.752;2023-02-28T01:30:36;3.20;1.00
816;DHT22;25928;51.062;13.752;2023-02-28T01:33:02;3.20;1.00
816;DHT22;25928;51.062;13.752;2023-02-28T01:35:28;3.20;1.00
816;DHT22;25928;51.062;13.752;2023-02-28T01:37:53;3.20;1.00
816;DHT22;25928;51.062;13.752;2023-02-28T01:40:19;3.20;1.00
816;DHT22;25928;51.062;13.752;2023-02-28T01:42:45;3.20;1.00
816;DHT22;25928;51.062;13.752;2023-02-28T01:45:40;3.10;1.00
816;DHT22;25928;51.062;13.752;2023-02-28T01:48:07;3.00;1.00
816;DHT22;25928;51.062;13.752;2023-02-28T01:50:40;3.10;1.00
816;DHT22;25928;51.062;13.752;2023-02-28T01:53:10;4.10;1.00
816;DHT22;25928;51.062;13.752;2023-02-28T01:55:37;2.90;1.00
816;DHT22;25928;51.062;13.752;2023-02-28T01:58:05;2.90;1.00
816;DHT22;25928;51.062;13.752;2023-02-28T02:00:32;3.00;1.00
816;DHT22;25928;51.062;13.752;2023-02-28T02:03:07;2.90;1.00
816;DHT22;25928;51.062;13.752;2023-02-28T02:05:36;3.00;1.00
816;DHT22;25928;51.062;13.752;2023-02-28T02:08:04;2.90;1.00
816;DHT22;25928;51.062;13.752;2023-02-28T02:10:39;2.90;1.00
816;DHT22;25928;51.062;13.752;2023-02-28T02:15:33;3.00;1.00
816;DHT22;25928;51.062;13.752;2023-02-28T02:21:13;3.00;1.00
816;DHT22;25928;51.062;13.752;2023-02-28T02:32:25;3.00;1.00
816;DHT22;25928;51.062;13.752;2023-02-28T02:40:20;2.90;1.00
816;DHT22;25928;51.062;13.752;2023-02-28T02:42:56;2.30;1.00
816;DHT22;25928;51.062;13.752;2023-02-28T02:45:44;2.80;1.00
816;DHT22;25928;51.062;13.752;2023-02-28T02:48:14;2.90;1.00
816;DHT22;25928;51.062;13.752;2023-02-28T02:50:49;2.80;1.00
816;DHT22;25928;51.062;13.752;2023-02-28T02:53:17;2.90;1.00
816;DHT22;25928;51.062;13.752;2023-02-28T02:55:46;4.90;1.00
816;DHT22;25928;51.062;13.752;2023-02-28T02:58:16;2.90;1.00
816;DHT22;25928;51.062;13.752;2023-02-28T03:00:50;2.80;1.00
816;DHT22;25928;51.062;13.752;2023-02-28T03:03:19;2.80;1.00
816;DHT22;25928;51.062;13.752;2023-02-28T03:05:58;2.70;1.00
816;DHT22;25928;51.062;13.752;2023-02-28T03:08:27;2.70;1.00
816;DHT22;25928;51.062;13.752;2023-02-28T03:11:02;2.70;1.00
816;DHT22;25928;51.062;13.752;2023-02-28T03:27:21;2.50;1.00
816;DHT22;25928;51.062;13.752;2023-02-28T03:30:03;2.30;1.00
816;DHT22;25928;51.062;13.752;2023-02-28T03:33:26;2.30;1.00
816;DHT22;25928;51.062;13.752;2023-02-28T03:35:29;2.30;1.00
816;DHT22;25928;51.062;13.752;2023-02-28T03:38:21;2.30;1.00
816;DHT22;25928;51.062;13.752;2023-02-28T03:41:28;2.30;1.00
816;DHT22;25928;51.062;13.752;2023-02-28T03:44:10;2.20;1.00
816;DHT22;25928;51.062;13.752;2023-02-28T03:46:38;2.10;1.00
816;DHT22;25928;51.062;13.752;2023-02-28T03:52:09;2.10;1.00
816;DHT22;25928;51.062;13.752;2023-02-28T03:54:41;2.10;1.00
816;DHT22;25928;51.062;13.752;2023-02-28T03:59:48;1.90;1.00
816;DHT22;25928;51.062;13.752;2023-02-28T04:02:17;1.90;1.00
816;DHT22;25928;51.062;13.752;2023-02-28T04:04:44;1.90;1.00
816;DHT22;25928;51.062;13.752;2023-02-28T04:07:14;1.80;1.00
816;DHT22;25928;51.062;13.752;2023-02-28T04:09:41;1.80;1.00
816;DHT22;25928;51.062;13.752;2023-02-28T04:12:07;1.80;1.00
816;DHT22;25928;51.062;13.752;2023-02-28T04:14:32;1.80;1.00
816;DHT22;25928;51.062;13.752;2023-02-28T04:16:58;1.70;1.00
816;DHT22;25928;51.062;13.752;2023-02-28T04:19:24;1.60;1.00
816;DHT22;25928;51.062;13.752;2023-02-28T04:21:51;1.60;1.00
816;DHT22;25928;51.062;13.752;2023-02-28T04:24:23;1.50;1.00
816;DHT22;25928;51.062;13.752;2023-02-28T04:26:54;1.50;1.00
816;DHT22;25928;51.062;13.752;2023-02-28T04:29:22;1.50;1.00
816;DHT22;25928;51.062;13.752;2023-02-28T04:31:48;1.50;1.00
816;DHT22;25928;51.062;13.752;2023-02-28T04:34:14;1.50;1.00
816;DHT22;25928;51.062;13.752;2023-02-28T04:36:39;1.40;1.00
816;DHT22;25928;51.062;13.752;2023-02-28T04:39:05;1.30;1.00
816;DHT22;25928;51.062;13.752;2023-02-28T04:41:31;1.40;1.00
816;DHT22;25928;51.062;13.752;2023-02-28T04:43:56;1.40;1.00
816;DHT22;25928;51.062;13.752;2023-02-28T04:46:23;1.40;1.00
816;DHT22;25928;51.062;13.752;2023-02-28T04:48:49;1.40;1.00
816;DHT22;25928;51.062;13.752;2023-02-28T04:51:17;1.30;1.00
816;DHT22;25928;51.062;13.752;2023-02-28T04:53:43;1.20;1.00
816;DHT22;25928;51.062;13.752;2023-02-28T04:56:12;1.20;1.00
816;DHT22;25928;51.062;13.752;2023-02-28T04:58:38;1.20;1.00
816;DHT22;25928;51.062;13.752;2023-02-28T05:01:07;1.20;1.00
816;DHT22;25928;51.062;13.752;2023-02-28T05:03:40;1.20;1.00
816;DHT22;25928;51.062;13.752;2023-02-28T05:06:10;1.20;1.00
816;DHT22;25928;51.062;13.752;2023-02-28T05:08:36;1.20;1.00
816;DHT22;25928;51.062;13.752;2023-02-28T05:11:02;1.20;1.00
816;DHT22;25928;51.062;13.752;2023-02-28T05:13:28;1.10;1.00
816;DHT22;25928;51.062;13.752;2023-02-28T05:15:54;1.20;1.00
816;DHT22;25928;51.062;13.752;2023-02-28T05:18:20;1.10;1.00
816;DHT22;25928;51.062;13.752;2023-02-28T05:20:46;1.10;1.00
816;DHT22;25928;51.062;13.752;2023-02-28T05:23:13;1.10;1.00
816;DHT22;25928;51.062;13.752;2023-02-28T05:25:40;1.10;1.00
816;DHT22;25928;51.062;13.752;2023-02-28T05:28:06;1.10;1.00
816;DHT22;25928;51.062;13.752;2023-02-28T05:30:32;1.10;1.00
816;DHT22;25928;51.062;13.752;2023-02-28T05:32:58;1.20;1.00
816;DHT22;25928;51.062;13.752;2023-02-28T05:35:24;1.10;1.00
816;DHT22;25928;51.062;13.752;2023-02-28T05:37:50;1.10;1.00
816;DHT22;25928;51.062;13.752;2023-02-28T05:40:16;1.10;1.00
816;DHT22;25928;51.062;13.752;2023-02-28T05:42:41;1.10;1.00
816;DHT22;25928;51.062;13.752;2023-02-28T05:45:08;1.20;1.00
816;DHT22;25928;51.062;13.752;2023-02-28T05:47:35;1.20;1.00
816;DHT22;25928;51.062;13.752;2023-02-28T05:50:01;1.20;1.00
816;DHT22;25928;51.062;13.752;2023-02-28T05:52:27;1.20;1.00
816;DHT22;25928;51.062;13.752;2023-02-28T05:54:53;1.20;1.00
816;DHT22;25928;51.062;13.752;2023-02-28T05:57:19;1.20;1.00
816;DHT22;25928;51.062;13.752;2023-02-28T05:59:44;1.10;1.00
816;DHT22;25928;51.062;13.752;2023-02-28T06:02:13;1.10;1.00
816;DHT22;25928;51.062;13.752;2023-02-28T06:04:39;1.00;1.00
816;DHT22;25928;51.062;13.752;2023-02-28T06:07:06;1.10;1.00
816;DHT22;25928;51.062;13.752;2023-02-28T06:09:32;1.10;1.00
816;DHT22;25928;51.062;13.752;2023-02-28T06:11:58;1.20;1.00
816;DHT22;25928;51.062;13.752;2023-02-28T06:14:24;1.10;1.00
816;DHT22;25928;51.062;13.752;2023-02-28T06:16:50;1.10;1.00
816;DHT22;25928;51.062;13.752;2023-02-28T06:19:16;1.10;1.00
816;DHT22;25928;51.062;13.752;2023-02-28T06:21:42;1.10;1.00
816;DHT22;25928;51.062;13.752;2023-02-28T06:24:08;1.10;1.00
816;DHT22;25928;51.062;13.752;2023-02-28T06:26:33;1.10;1.00
816;DHT22;25928;51.062;13.752;2023-02-28T06:28:59;1.20;1.00
816;DHT22;25928;51.062;13.752;2023-02-28T06:31:26;1.20;1.00
816;DHT22;25928;51.062;13.752;2023-02-28T06:33:51;1.10;1.00
816;DHT22;25928;51.062;13.752;2023-02-28T06:36:17;1.20;1.00
816;DHT22;25928;51.062;13.752;2023-02-28T06:38:44;1.20;1.00
816;DHT22;25928;51.062;13.752;2023-02-28T06:41:10;1.20;1.00
816;DHT22;25928;51.062;13.752;2023-02-28T06:43:38;1.20;1.00
816;DHT22;25928;51.062;13.752;2023-02-28T06:46:06;1.20;1.00
816;DHT22;25928;51.062;13.752;2023-02-28T06:48:32;1.30;1.00
816;DHT22;25928;51.062;13.752;2023-02-28T06:51:06;1.20;1.00
816;DHT22;25928;51.062;13.752;2023-02-28T06:53:33;1.20;1.00
816;DHT22;25928;51.062;13.752;2023-02-28T06:55:58;1.30;1.00
816;DHT22;25928;51.062;13.752;2023-02-28T06:58:25;2.40;1.00
816;DHT22;25928;51.062;13.752;2023-02-28T07:00:51;1.40;1.00
816;DHT22;25928;51.062;13.752;2023-02-28T07:03:17;1.60;1.00
816;DHT22;25928;51.062;13.752;2023-02-28T07:05:44;1.70;1.00
816;DHT22;25928;51.062;13.752;2023-02-28T07:08:10;1.80;1.00
816;DHT22;25928;51.062;13.752;2023-02-28T07:10:39;2.00;1.00
816;DHT22;25928;51.062;13.752;2023-02-28T07:13:06;2.10;1.00
816;DHT22;25928;51.062;13.752;2023-02-28T07:15:32;2.30;1.00
816;DHT22;25928;51.062;13.752;2023-02-28T07:17:58;2.40;1.00
816;DHT22;25928;51.062;13.752;2023-02-28T07:20:24;2.60;1.00
816;DHT22;25928;51.062;13.752;2023-02-28T07:22:50;2.90;1.00
816;DHT22;25928;51.062;13.752;2023-02-28T07:25:22;3.10;1.00
816;DHT22;25928;51.062;13.752;2023-02-28T07:27:48;3.30;1.00
816;DHT22;25928;51.062;13.752;2023-02-28T07:30:14;3.20;1.00
816;DHT22;25928;51.062;13.752;2023-02-28T07:32:40;3.10;1.00
816;DHT22;25928;51.062;13.752;2023-02-28T07:35:05;3.10;1.00
816;DHT22;25928;51.062;13.752;2023-02-28T07:37:31;3.20;1.00
816;DHT22;25928;51.062;13.752;2023-02-28T07:40:05;3.30;1.00
816;DHT22;25928;51.062;13.752;2023-02-28T07:42:35;3.40;1.00
816;DHT22;25928;51.062;13.752;2023-02-28T07:45:01;3.60;1.00
816;DHT22;25928;51.062;13.752;2023-02-28T07:47:29;3.70;1.00
816;DHT22;25928;51.062;13.752;2023-02-28T07:49:55;3.80;1.00
816;DHT22;25928;51.062;13.752;2023-02-28T07:52:20;3.80;1.00
816;DHT22;25928;51.062;13.752;2023-02-28T07:54:46;3.90;1.00
816;DHT22;25928;51.062;13.752;2023-02-28T07:57:12;3.90;1.00
816;DHT22;25928;51.062;13.752;2023-02-28T07:59:37;4.10;1.00
816;DHT22;25928;51.062;13.752;2023-02-28T08:02:03;4.30;1.00
816;DHT22;25928;51.062;13.752;2023-02-28T08:04:32;4.50;1.00
816;DHT22;25928;51.062;13.752;2023-02-28T08:06:57;4.50;1.00
816;DHT22;25928;51.062;13.752;2023-02-28T08:09:23;4.70;1.00
816;DHT22;25928;51.062;13.752;2023-02-28T08:11:49;4.90;1.00
816;DHT22;25928;51.062;13.752;2023-02-28T08:14:15;5.40;1.00
816;DHT22;25928;51.062;13.752;2023-02-28T08:16:41;5.70;1.00
816;DHT22;25928;51.062;13.752;2023-02-28T08:19:08;5.70;1.00
816;DHT22;25928;51.062;13.752;2023-02-28T08:21:34;5.70;1.00
816;DHT22;25928;51.062;13.752;2023-02-28T08:24:00;5.70;1.00
816;DHT22;25928;51.062;13.752;2023-02-28T08:26:26;5.80;1.00
816;DHT22;25928;51.062;13.752;2023-02-28T08:28:51;5.80;1.00
816;DHT22;25928;51.062;13.752;2023-02-28T08:31:18;5.70;1.00
816;DHT22;25928;51.062;13.752;2023-02-28T08:33:45;5.60;1.00
816;DHT22;25928;51.062;13.752;2023-02-28T08:36:11;5.70;1.00
816;DHT22;25928;51.062;13.752;2023-02-28T08:38:37;5.70;1.00
816;DHT22;25928;51.062;13.752;2023-02-28T08:41:08;5.80;1.00
816;DHT22;25928;51.062;13.752;2023-02-28T08:43:35;5.80;1.00
816;DHT22;25928;51.062;13.752;2023-02-28T08:46:01;5.90;1.00
816;DHT22;25928;51.062;13.752;2023-02-28T08:48:29;6.00;1.00
816;DHT22;25928;51.062;13.752;2023-02-28T08:50:58;6.00;1.00
816;DHT22;25928;51.062;13.752;2023-02-28T08:53:24;6.00;1.00
816;DHT22;25928;51.062;13.752;2023-02-28T08:56:01;6.10;1.00
816;DHT22;25928;51.062;13.752;2023-02-28T08:58:27;6.20;1.00
816;DHT22;25928;51.062;13.752;2023-02-28T09:00:53;6.40;1.00
816;DHT22;25928;51.062;13.752;2023-02-28T09:03:20;6.50;1.00
816;DHT22;25928;51.062;13.752;2023-02-28T09:05:57;6.50;1.00
816;DHT22;25928;51.062;13.752;2023-02-28T09:08:24;6.50;1.00
816;DHT22;25928;51.062;13.752;2023-02-28T09:10:50;6.60;1.00
816;DHT22;25928;51.062;13.752;2023-02-28T09:13:16;6.70;1.00
816;DHT22;25928;51.062;13.752;2023-02-28T09:15:42;6.70;1.00
816;DHT22;25928;51.062;13.752;2023-02-28T09:18:08;6.40;1.00
816;DHT22;25928;51.062;13.752;2023-02-28T09:20:33;6.20;1.00
816;DHT22;25928;51.062;13.752;2023-02-28T09:22:59;6.10;1.00
816;DHT22;25928;51.062;13.752;2023-02-28T09:25:25;6.00;1.00
816;DHT22;25928;51.062;13.752;2023-02-28T09:27:50;5.90;1.00
816;DHT22;25928;51.062;13.752;2023-02-28T09:30:16;5.60;1.00
816;DHT22;25928;51.062;13.752;2023-02-28T09:32:42;5.50;1.00
816;DHT22;25928;51.062;13.752;2023-02-28T09:35:08;5.60;1.00
816;DHT22;25928;51.062;13.752;2023-02-28T09:37:38;5.60;1.00
816;DHT22;25928;51.062;13.752;2023-02-28T09:40:05;5.70;1.00
816;DHT22;25928;51.062;13.752;2023-02-28T09:42:32;5.70;1.00
816;DHT22;25928;51.062;13.752;2023-02-28T09:45:00;5.60;1.00
816;DHT22;25928;51.062;13.752;2023-02-28T09:47:31;5.80;1.00
816;DHT22;25928;51.062;13.752;2023-02-28T09:50:03;5.90;1.00
816;DHT22;25928;51.062;13.752;2023-02-28T09:52:33;6.10;1.00
816;DHT22;25928;51.062;13.752;2023-02-28T09:55:19;6.30;1.00
816;DHT22;25928;51.062;13.752;2023-02-28T09:57:46;6.10;1.00
816;DHT22;25928;51.062;13.752;2023-02-28T10:00:29;6.00;1.00
816;DHT22;25928;51.062;13.752;2023-02-28T10:03:32;5.80;1.00
816;DHT22;25928;51.062;13.752;2023-02-28T10:06:20;6.10;1.00
816;DHT22;25928;51.062;13.752;2023-02-28T10:09:49;6.60;1.00
816;DHT22;25928;51.062;13.752;2023-02-28T10:11:42;6.90;1.00
816;DHT22;25928;51.062;13.752;2023-02-28T10:14:21;7.50;1.00
816;DHT22;25928;51.062;13.752;2023-02-28T10:17:26;7.80;1.00
816;DHT22;25928;51.062;13.752;2023-02-28T10:20:00;7.90;99.90
816;DHT22;25928;51.062;13.752;2023-02-28T10:24:55;7.60;99.90
816;DHT22;25928;51.062;13.752;2023-02-28T10:27:29;7.20;99.90
816;DHT22;25928;51.062;13.752;2023-02-28T10:29:57;7.20;99.90
816;DHT22;25928;51.062;13.752;2023-02-28T10:32:26;6.80;99.90
816;DHT22;25928;51.062;13.752;2023-02-28T10:35:14;6.50;99.90
816;DHT22;25928;51.062;13.752;2023-02-28T10:37:42;6.60;99.90
816;DHT22;25928;51.062;13.752;2023-02-28T10:45:20;6.20;99.90
816;DHT22;25928;51.062;13.752;2023-02-28T10:47:58;6.30;99.90
816;DHT22;25928;51.062;13.752;2023-02-28T10:50:57;6.60;99.90
816;DHT22;25928;51.062;13.752;2023-02-28T11:02:07;8.30;99.90
816;DHT22;25928;51.062;13.752;2023-02-28T11:07:19;8.00;99.90
816;DHT22;25928;51.062;13.752;2023-02-28T11:09:48;8.20;99.90
816;DHT22;25928;51.062;13.752;2023-02-28T11:12:23;8.40;99.90
816;DHT22;25928;51.062;13.752;2023-02-28T11:15:03;8.50;99.90
816;DHT22;25928;51.062;13.752;2023-02-28T11:17:32;7.90;99.90
816;DHT22;25928;51.062;13.752;2023-02-28T11:20:13;7.60;99.90
816;DHT22;25928;51.062;13.752;2023-02-28T11:22:44;7.00;99.90
816;DHT22;25928;51.062;13.752;2023-02-28T11:25:23;6.60;99.90
816;DHT22;25928;51.062;13.752;2023-02-28T11:27:52;5.90;99.90
816;DHT22;25928;51.062;13.752;2023-02-28T11:30:37;5.60;99.90
816;DHT22;25928;51.062;13.752;2023-02-28T11:33:30;5.60;99.90
816;DHT22;25928;51.062;13.752;2023-02-28T11:36:01;5.60;99.90
816;DHT22;25928;51.062;13.752;2023-02-28T11:38:27;5.90;99.90
816;DHT22;25928;51.062;13.752;2023-02-28T11:46:49;6.70;99.90
816;DHT22;25928;51.062;13.752;2023-02-28T11:49:42;7.10;1.00
816;DHT22;25928;51.062;13.752;2023-02-28T11:55:48;7.90;99.90
816;DHT22;25928;51.062;13.752;2023-02-28T12:17:07;7.80;99.90
816;DHT22;25928;51.062;13.752;2023-02-28T12:22:37;6.60;99.90
816;DHT22;25928;51.062;13.752;2023-02-28T12:25:36;6.60;99.90
816;DHT22;25928;51.062;13.752;2023-02-28T12:28:09;6.60;99.90
816;DHT22;25928;51.062;13.752;2023-02-28T12:30:38;6.90;99.90
816;DHT22;25928;51.062;13.752;2023-02-28T12:33:12;7.10;99.90
816;DHT22;25928;51.062;13.752;2023-02-28T12:36:05;7.00;99.90
816;DHT22;25928;51.062;13.752;2023-02-28T12:38:36;7.20;99.90
816;DHT22;25928;51.062;13.752;2023-02-28T12:43:46;7.30;99.90
816;DHT22;25928;51.062;13.752;2023-02-28T12:46:23;7.10;99.90
816;DHT22;25928;51.062;13.752;2023-02-28T12:48:53;6.70;99.90
816;DHT22;25928;51.062;13.752;2023-02-28T12:51:21;6.20;99.90
816;DHT22;25928;51.062;13.752;2023-02-28T12:56:30;5.90;99.90
816;DHT22;25928;51.062;13.752;2023-02-28T13:09:18;6.00;1.00
816;DHT22;25928;51.062;13.752;2023-02-28T13:11:46;6.00;99.90
816;DHT22;25928;51.062;13.752;2023-02-28T13:14:23;5.90;99.90
816;DHT22;25928;51.062;13.752;2023-02-28T13:17:11;5.90;1.00
816;DHT22;25928;51.062;13.752;2023-02-28T13:20:04;6.00;99.90
816;DHT22;25928;51.062;13.752;2023-02-28T13:25:01;6.40;99.90
816;DHT22;25928;51.062;13.752;2023-02-28T13:27:41;6.50;99.90
816;DHT22;25928;51.062;13.752;2023-02-28T13:38:52;6.50;99.90
816;DHT22;25928;51.062;13.752;2023-02-28T13:51:50;7.00;99.90
816;DHT22;25928;51.062;13.752;2023-02-28T13:59:53;7.30;99.90
816;DHT22;25928;51.062;13.752;2023-02-28T14:02:40;7.40;99.90
816;DHT22;25928;51.062;13.752;2023-02-28T14:07:52;6.90;99.90
816;DHT22;25928;51.062;13.752;2023-02-28T14:10:28;6.70;99.90
816;DHT22;25928;51.062;13.752;2023-02-28T14:12:59;6.50;99.90
816;DHT22;25928;51.062;13.752;2023-02-28T14:15:38;6.50;99.90
816;DHT22;25928;51.062;13.752;2023-02-28T14:18:23;6.70;99.90
816;DHT22;25928;51.062;13.752;2023-02-28T14:20:54;6.80;99.90
816;DHT22;25928;51.062;13.752;2023-02-28T14:23:55;6.90;1.00
816;DHT22;25928;51.062;13.752;2023-02-28T14:26:56;7.20;1.00
816;DHT22;25928;51.062;13.752;2023-02-28T14:37:50;7.60;99.90
816;DHT22;25928;51.062;13.752;2023-02-28T14:40:40;7.70;99.90
816;DHT22;25928;51.062;13.752;2023-02-28T14:43:06;7.60;99.90
816;DHT22;25928;51.062;13.752;2023-02-28T14:45:44;7.50;99.90
816;DHT22;25928;51.062;13.752;2023-02-28T14:48:15;7.30;99.90
816;DHT22;25928;51.062;13.752;2023-02-28T14:50:51;7.00;99.90
816;DHT22;25928;51.062;13.752;2023-02-28T14:53:19;6.70;99.90
816;DHT22;25928;51.062;13.752;2023-02-28T14:55:47;6.40;1.00
816;DHT22;25928;51.062;13.752;2023-02-28T15:00:53;6.30;1.00
816;DHT22;25928;51.062;13.752;2023-02-28T15:03:35;6.40;1.00
816;DHT22;25928;51.062;13.752;2023-02-28T15:06:14;6.40;1.00
816;DHT22;25928;51.062;13.752;2023-02-28T15:08:41;6.40;99.90
816;DHT22;25928;51.062;13.752;2023-02-28T15:11:11;6.40;99.90
816;DHT22;25928;51.062;13.752;2023-02-28T15:13:46;6.40;99.90
816;DHT22;25928;51.062;13.752;2023-02-28T15:16:29;6.20;99.90
816;DHT22;25928;51.062;13.752;2023-02-28T15:21:38;6.10;99.90
816;DHT22;25928;51.062;13.752;2023-02-28T15:24:19;6.10;99.90
816;DHT22;25928;51.062;13.752;2023-02-28T15:26:57;6.00;99.90
816;DHT22;25928;51.062;13.752;2023-02-28T15:29:25;6.10;99.90
816;DHT22;25928;51.062;13.752;2023-02-28T15:32:07;6.30;99.90
816;DHT22;25928;51.062;13.752;2023-02-28T15:34:41;6.80;99.90
816;DHT22;25928;51.062;13.752;2023-02-28T15:39:52;7.20;99.90
816;DHT22;25928;51.062;13.752;2023-02-28T15:42:19;7.20;99.90
816;DHT22;25928;51.062;13.752;2023-02-28T15:44:46;7.30;99.90
816;DHT22;25928;51.062;13.752;2023-02-28T15:47:18;7.30;99.90
816;DHT22;25928;51.062;13.752;2023-02-28T15:49:53;7.80;99.90
816;DHT22;25928;51.062;13.752;2023-02-28T15:52:26;8.10;99.90
816;DHT22;25928;51.062;13.752;2023-02-28T15:54:53;8.40;99.90
816;DHT22;25928;51.062;13.752;2023-02-28T15:57:24;8.30;99.90
816;DHT22;25928;51.062;13.752;2023-02-28T15:59:57;8.40;99.90
816;DHT22;25928;51.062;13.752;2023-02-28T16:02:35;8.00;99.90
816;DHT22;25928;51.062;13.752;2023-02-28T16:07:37;7.50;99.90
816;DHT22;25928;51.062;13.752;2023-02-28T16:10:06;7.10;99.90
816;DHT22;25928;51.062;13.752;2023-02-28T16:12:35;7.10;99.90
816;DHT22;25928;51.062;13.752;2023-02-28T16:15:05;7.20;99.90
816;DHT22;25928;51.062;13.752;2023-02-28T16:17:35;7.30;99.90
816;DHT22;25928;51.062;13.752;2023-02-28T16:20:16;7.30;99.90
816;DHT22;25928;51.062;13.752;2023-02-28T16:22:42;7.30;99.90
816;DHT22;25928;51.062;13.752;2023-02-28T16:25:13;7.30;99.90
816;DHT22;25928;51.062;13.752;2023-02-28T16:27:39;7.30;99.90
816;DHT22;25928;51.062;13.752;2023-02-28T16:30:06;7.20;99.90
816;DHT22;25928;51.062;13.752;2023-02-28T16:32:35;7.00;99.90
816;DHT22;25928;51.062;13.752;2023-02-28T16:35:02;6.70;99.90
816;DHT22;25928;51.062;13.752;2023-02-28T16:37:27;6.30;99.90
816;DHT22;25928;51.062;13.752;2023-02-28T16:39:53;6.00;99.90
816;DHT22;25928;51.062;13.752;2023-02-28T16:42:25;5.80;99.90
816;DHT22;25928;51.062;13.752;2023-02-28T16:44:53;5.70;99.90
816;DHT22;25928;51.062;13.752;2023-02-28T16:47:19;5.50;1.00
816;DHT22;25928;51.062;13.752;2023-02-28T16:49:45;5.40;1.00
816;DHT22;25928;51.062;13.752;2023-02-28T16:52:13;5.30;1.00
816;DHT22;25928;51.062;13.752;2023-02-28T16:54:39;5.20;1.00
816;DHT22;25928;51.062;13.752;2023-02-28T16:57:08;5.10;1.00
816;DHT22;25928;51.062;13.752;2023-02-28T16:59:40;5.00;1.00
816;DHT22;25928;51.062;13.752;2023-02-28T17:02:14;4.90;1.00
816;DHT22;25928;51.062;13.752;2023-02-28T17:04:41;4.90;1.00
816;DHT22;25928;51.062;13.752;2023-02-28T17:07:12;4.90;1.00
816;DHT22;25928;51.062;13.752;2023-02-28T17:09:38;4.80;1.00
816;DHT22;25928;51.062;13.752;2023-02-28T17:12:04;4.80;1.00
816;DHT22;25928;51.062;13.752;2023-02-28T17:14:30;4.80;1.00
816;DHT22;25928;51.062;13.752;2023-02-28T17:16:56;4.70;1.00
816;DHT22;25928;51.062;13.752;2023-02-28T17:19:22;4.70;1.00
816;DHT22;25928;51.062;13.752;2023-02-28T17:21:47;4.60;1.00
816;DHT22;25928;51.062;13.752;2023-02-28T17:24:13;4.70;1.00
816;DHT22;25928;51.062;13.752;2023-02-28T17:26:40;4.70;1.00
816;DHT22;25928;51.062;13.752;2023-02-28T17:29:17;4.60;1.00
816;DHT22;25928;51.062;13.752;2023-02-28T17:31:42;4.60;1.00
816;DHT22;25928;51.062;13.752;2023-02-28T17:34:08;4.50;1.00
816;DHT22;25928;51.062;13.752;2023-02-28T17:36:34;4.60;1.00
816;DHT22;25928;51.062;13.752;2023-02-28T17:39:01;4.50;1.00
816;DHT22;25928;51.062;13.752;2023-02-28T17:41:26;4.50;1.00
816;DHT22;25928;51.062;13.752;2023-02-28T17:43:52;4.40;1.00
816;DHT22;25928;51.062;13.752;2023-02-28T17:46:23;4.40;1.00
816;DHT22;25928;51.062;13.752;2023-02-28T17:48:50;4.40;1.00
816;DHT22;25928;51.062;13.752;2023-02-28T17:51:18;4.30;1.00
816;DHT22;25928;51.062;13.752;2023-02-28T17:53:44;4.40;1.00
816;DHT22;25928;51.062;13.752;2023-02-28T17:56:15;4.40;1.00
816;DHT22;25928;51.062;13.752;2023-02-28T17:58:41;4.30;1.00
816;DHT22;25928;51.062;13.752;2023-02-28T18:01:07;4.30;1.00
816;DHT22;25928;51.062;13.752;2023-02-28T18:03:33;4.30;1.00
816;DHT22;25928;51.062;13.752;2023-02-28T18:05:59;4.30;1.00
816;DHT22;25928;51.062;13.752;2023-02-28T18:08:25;4.20;1.00
816;DHT22;25928;51.062;13.752;2023-02-28T18:10:52;4.10;1.00
816;DHT22;25928;51.062;13.752;2023-02-28T18:13:17;4.10;1.00
816;DHT22;25928;51.062;13.752;2023-02-28T18:15:43;4.00;1.00
816;DHT22;25928;51.062;13.752;2023-02-28T18:18:08;3.80;1.00
816;DHT22;25928;51.062;13.752;2023-02-28T18:20:35;3.80;1.00
816;DHT22;25928;51.062;13.752;2023-02-28T18:23:01;3.90;1.00
816;DHT22;25928;51.062;13.752;2023-02-28T18:25:27;3.70;1.00
816;DHT22;25928;51.062;13.752;2023-02-28T18:27:52;3.70;1.00
816;DHT22;25928;51.062;13.752;2023-02-28T18:30:22;3.70;1.00
816;DHT22;25928;51.062;13.752;2023-02-28T18:32:48;3.60;1.00
816;DHT22;25928;51.062;13.752;2023-02-28T18:35:13;3.70;1.00
816;DHT22;25928;51.062;13.752;2023-02-28T18:37:39;3.60;1.00
816;DHT22;25928;51.062;13.752;2023-02-28T18:40:05;3.60;1.00
816;DHT22;25928;51.062;13.752;2023-02-28T18:42:31;3.50;1.00
816;DHT22;25928;51.062;13.752;2023-02-28T18:44:57;3.40;1.00
816;DHT22;25928;51.062;13.752;2023-02-28T18:47:22;3.30;1.00
816;DHT22;25928;51.062;13.752;2023-02-28T18:49:48;3.30;1.00
816;DHT22;25928;51.062;13.752;2023-02-28T18:52:13;3.20;1.00
816;DHT22;25928;51.062;13.752;2023-02-28T18:54:39;3.10;1.00
816;DHT22;25928;51.062;13.752;2023-02-28T18:57:05;2.90;1.00
816;DHT22;25928;51.062;13.752;2023-02-28T18:59:30;2.80;1.00
816;DHT22;25928;51.062;13.752;2023-02-28T19:01:56;2.90;1.00
816;DHT22;25928;51.062;13.752;2023-02-28T19:04:23;3.00;1.00